ADDS METAR Data INFO
IDs: Format: Raw Decoded Include TAF

Data at: 0132 UTC 20 Feb 2018

KPIA 200118Z 18010KT 4SM RA BR FEW006 BKN036 OVC070 15/14 A2980 RMK AO2 PK WND 18027/0102 LTG DSNT ALQDS P0003 T01500144 $
KPIA 200111Z 18016G27KT 3SM -RA BR SCT008 BKN020 OVC070 15/14 A2980 RMK AO2 PK WND 18027/0102 LTG DSNT E AND SE AND W P0002 T01500144 $
KPIA 200100Z 18016G26KT 6SM -RA BR BKN008 BKN016 OVC075 15/14 A2980 RMK AO2 PK WND 17026/0056 LTG DSNT SE AND S P0000 T01500144 $
KPIA 200054Z 18012KT 6SM -RA BR SCT010 BKN019 OVC025 15/14 A2980 RMK AO2 LTG DSNT S SLP093 P0004 T01500144 $
KPIA 200011Z 19016KT 10SM -RA SCT010 BKN028 OVC110 15/14 A2981 RMK AO2 P0001 T01500144 $
KPIA 192356Z 19016KT 5SM -RA BR BKN010 OVC025 15/14 A2980 RMK AO2 CIG 008V014 P0000 T01500144 $
KPIA 192354Z 19014KT 9SM -RA BKN010 OVC025 15/14 A2980 RMK AO2 PK WND 20027/2336 RAB43 CIG 008V014 SLP093 P0000 60004 T01500144 10161 20150 53004 $
KPIA 192318Z 20016G24KT 10SM OVC007 15/14 A2981 RMK AO2 T01500144 $
KPIA 192310Z 21018G25KT 10SM 15/14 A2981 RMK AO2 T01500144 $
KPIA 192254Z 18019G27KT 10SM OVC004 15/14 A2979 RMK AO2 PK WND 18031/2236 RAEMM SLP087 P0003 T01500139 $
KPIA 192252Z 18019G27KT 10SM OVC004 15/14 A2978 RMK AO2 PK WND 18031/2236 RAEMM P0003 $
KPIA 192154Z 19017KT 10SM -RA BKN009 OVC013 15/14 A2979 RMK AO2 PK WND 20026/2102 CIG 007V012 SLP089 P0001 T01500139 $
KPIA 192113Z 19017G25KT 10SM -RA OVC013 16/14 A2979 RMK AO2 PK WND 20026/2102 P0000 T01560139 $
KPIA 192054Z 19014G25KT 10SM -RA OVC015 16/14 A2979 RMK AO2 PK WND 20027/2018 RAB43 SLP089 P0000 60000 T01560139 53008 $
KPIA 191954Z 20018KT 10SM BKN017 BKN021 OVC032 16/14 A2977 RMK AO2 PK WND 19028/1915 SLP083 T01610139 $
KPIA 191944Z 20017G28KT 10SM BKN017 OVC030 16/14 A2978 RMK AO2 PK WND 19028/1915 T01610139 $
KPIA 191934Z 20018G26KT 10SM SCT017 OVC030 16/14 A2977 RMK AO2 PK WND 19028/1915 T01610139 $
KPIA 191854Z 20020G28KT 10SM BKN016 OVC028 16/14 A2977 RMK AO2 PK WND 20030/1840 SLP080 T01560139 $
KPIA 191851Z 20018G27KT 10SM SCT016 OVC028 16/14 A2977 RMK AO2 PK WND 20030/1840 $
KPIA 191801Z 20017G25KT 10SM BKN010 OVC016 16/14 A2978 RMK AO2 CIG 008V013 T01560139 $
KPIA 191754Z 20017G26KT 10SM BKN009 OVC015 15/14 A2979 RMK AO2 PK WND 21027/1744 CIG 007V013 SLP088 P0001 60025 T01500139 10150 20078 58001 $
KPIA 191723Z 20019G25KT 10SM OVC010 14/13 A2979 RMK AO2 CIG 007V014 P0001 T01440133 $
KPIA 191654Z 20016G24KT 10SM OVC009 14/13 A2980 RMK AO2 RAE16B29E39 CIG 006V013 SLP091 P0004 T01390133 $
KPIA 191619Z 20012KT 7SM OVC005 13/12 A2979 RMK AO2 RAE16 CIG 003V008 P0004 T01280122 $
KPIA 191554Z 20011KT 2 1/2SM -RA BR OVC004 12/12 A2979 RMK AO2 SLP089 P0002 T01170117 $
KPIA 191551Z 20010KT 3SM -RA BR OVC004 12/12 A2979 RMK AO2 P0002 $
KPIA 191541Z 21009KT 2 1/2SM -RA BR OVC003 12/11 A2979 RMK AO2 P0002 T01170111 $
KPIA 191531Z 20011KT 3SM -RA BR OVC003 11/11 A2979 RMK AO2 P0001 T01110111 $
KPIA 191459Z 19012KT 2SM -RA BR OVC003 11/11 A2979 RMK AO2 P0000 T01110106 $
KPIA 191454Z 19012KT 1 1/4SM R04/4000VP6000FT VCTS -RA BR OVC003 11/11 A2978 RMK AO2 LTG DSNT NE SLP088 P0009 60018 T01060106 56016 $
KPIA 191446Z 19014KT 1 1/4SM R04/4000VP6000FT VCTS RA BR OVC003 11/11 A2978 RMK AO2 LTG DSNT NE P0003 T01060106 $
KPIA 191437Z 19011G19KT 1 3/4SM R04/6000VP6000FT -RA BR OVC003 11/10 A2978 RMK AO2 LTG DSNT N AND NE P0003 T01060100 $
KPIA 191427Z 19009KT 1 1/4SM R04/5500VP6000FT VCTS -RA BR OVC003 11/10 A2979 RMK AO2 LTG DSNT N AND SE P0002 T01060100 $
KPIA 191408Z 18013KT 2SM -RA BR OVC003 10/10 A2979 RMK AO2 LTG DSNT NW P0001 T01000100 $
KPIA 191354Z 18011KT 1 3/4SM -RA BR OVC003 10/09 A2979 RMK AO2 LTG DSNT W SLP091 P0004 T01000094 $
KPIA 191334Z 16008KT 1 3/4SM -RA BR OVC003 09/09 A2979 RMK AO2 P0003 T00940089 $
KPIA 191254Z 15007KT 2SM -RA BR OVC003 09/08 A2979 RMK AO2 RAE22B41 SLP090 P0005 T00890083 $
KPIA 191241Z 15008KT 2SM -RA BR OVC003 08/08 A2980 RMK AO2 RAE22B41 P0005 T00830078 $
KPIA 191154Z 13007KT 3SM -RA BR BKN003 BKN012 OVC026 08/07 A2983 RMK AO2 LTG DSNT W SLP104 P0016 60020 70022 T00780072 10078 20050 58005 $
KPIA 191145Z 14007KT 3SM RA BR SCT003 BKN010 OVC024 08/07 A2984 RMK AO2 LTG DSNT SW AND W P0015 T00780072 $
KPIA 191135Z 14006KT 3SM RA BR BKN003 BKN010 OVC026 08/07 A2983 RMK AO2 LTG DSNT W P0011 T00780072 $
KPIA 191125Z 17007KT 2 1/2SM RA BR BKN005 OVC032 07/07 A2985 RMK AO2 P0006 T00720067 $
KPIA 191054Z 18007KT 6SM -RA BR BKN007 OVC016 07/06 A2985 RMK AO2 LTG DSNT SW RAB15 SLP110 P0003 T00720061 $
KPIA 191042Z 17007KT 4SM RA BR BKN009 OVC015 07/06 A2984 RMK AO2 LTG DSNT S AND SW RAB15 P0002 T00670056 $
KPIA 191017Z 18005KT 10SM -RA BKN010 OVC022 07/04 A2985 RMK AO2 RAB15 P0000 T00670044 $
KPIA 190954Z AUTO 18007KT 10SM SCT011 OVC023 07/04 A2985 RMK AO2 SLP109 T00670044 $
KPIA 190902Z 17005KT 10SM OVC014 06/04 A2985 RMK AO2 T00610039 $
KPIA 190854Z 17004KT 10SM OVC016 06/04 A2985 RMK AO2 SLP111 60001 T00610039 58002 $
KPIA 190754Z 20006KT 10SM OVC018 06/04 A2986 RMK AO2 SLP113 T00610039 $
KPIA 190654Z 19005KT 10SM OVC022 05/03 A2986 RMK AO2 RAE24 SLP115 P0001 T00500033 $
KPIA 190609Z 22006KT 7SM -RA BKN029 OVC036 05/03 A2987 RMK AO2 P0000 T00500028 $
KPIA 190554Z 20007KT 10SM -RA BKN030 OVC036 06/02 A2986 RMK AO2 RAB0459 SLP115 P0002 60002 T00560022 10061 20050 400831089 55008 $
KPIA 190454Z 17013G24KT 10SM BKN043 OVC050 06/01 A2983 RMK AO2 PK WND 17027/0428 SLP106 T00560011 $
KPIA 190354Z 17015G24KT 10SM OVC060 06/01 A2986 RMK AO2 PK WND 18028/0259 SLP115 T00610006 $
KPIA 190254Z 18016G24KT 10SM CLR 05/01 A2988 RMK AO2 PK WND 17027/0232 SLP125 T00500006 56012 $
KPIA 190154Z 17017G27KT 10SM CLR 06/00 A2988 RMK AO2 PK WND 17032/0134 SLP126 T00560000 $
KPIA 190054Z 16018G27KT 10SM CLR 06/01 A2988 RMK AO2 PK WND 16028/0038 SLP126 T00610006 $
KPIA 182354Z 16014G22KT 10SM CLR 06/00 A2992 RMK AO2 PK WND 16029/2310 SLP138 T00610000 10083 20039 56032 $
KPIA 182254Z 17019G27KT 10SM CLR 08/01 A2995 RMK AO2 PK WND 15027/2252 SLP148 T00780006 $
KPIA 182154Z 17015G22KT 10SM CLR 08/01 A2998 RMK AO2 PK WND 15029/2122 SLP157 T00830006 $
KPIA 182054Z 17017G24KT 10SM CLR 08/01 A3002 RMK AO2 PK WND 17028/2003 SLP171 T00830011 56043 $
KPIA 181954Z 18018G26KT 10SM CLR 07/01 A3005 RMK AO2 PK WND 16028/1936 SLP184 T00720011 $
KPIA 181854Z 17013KT 10SM CLR 06/01 A3010 RMK AO2 PK WND 17026/1841 SLP199 T00560011 $
KPIA 181754Z 14009G19KT 10SM CLR 04/M01 A3015 RMK AO2 PRESFR SLP215 I6001 T00391006 10039 21061 58045 $
KPIA 181654Z 18012KT 10SM CLR 02/M01 A3022 RMK AO2 SLP240 T00171011 $
KPIA 181554Z 17012KT 7SM CLR 00/M02 A3025 RMK AO2 SLP253 T00001022 $
KPIA 181454Z 17009KT 5SM BR CLR M02/M03 A3028 RMK AO2 SLP262 I1001 I3001 T10221033 53017 $
KPIA 181354Z 21003KT 4SM BR CLR M06/M06 A3027 RMK AO2 SLP259 T10561061 $